Time;durP1;ratioP1;P1;durP2;ratioP2;P2;SDS_P1;SDS_P2;PMS_P1;PMS_P2;Temp;Humidity;BMP_temperature;BMP_pressure;BME280_temperature;BME280_humidity;BME280_pressure;Samples;Min_cycle;Max_cycle;Signal;HPM_P1;HPM_P2
2021/04/01 00:02:01;;;;;;;27.35;16.02;;;7.80;64.00;;;;;;5055706;28;20025;-83
2021/04/01 00:04:27;;;;;;;28.65;14.75;;;7.80;64.30;;;;;;5055634;28;20550;-83
2021/04/01 00:06:53;;;;;;;29.20;14.95;;;7.80;64.10;;;;;;5054235;28;20135;-83
2021/04/01 00:09:24;;;;;;;25.05;14.02;;;7.80;63.70;;;;;;5055722;28;20467;-83
2021/04/01 00:11:50;;;;;;;23.58;12.73;;;7.80;63.80;;;;;;5053789;28;20431;-83
2021/04/01 00:14:19;;;;;;;29.38;14.63;;;7.80;63.70;;;;;;5054981;28;20052;-83
2021/04/01 00:16:45;;;;;;;24.85;13.63;;;7.80;64.10;;;;;;5054064;28;20025;-83
2021/04/01 00:19:12;;;;;;;25.92;13.38;;;7.70;63.80;;;;;;5053976;28;20025;-83
2021/04/01 00:21:37;;;;;;;24.55;12.50;;;7.80;63.60;;;;;;5053695;28;20405;-82
2021/04/01 00:24:03;;;;;;;24.70;11.90;;;7.80;63.60;;;;;;5054900;28;20033;-83
2021/04/01 00:26:29;;;;;;;20.95;12.25;;;7.80;64.00;;;;;;5053605;28;20056;-83
2021/04/01 00:28:55;;;;;;;23.35;11.45;;;7.80;63.60;;;;;;5054954;28;20112;-83
2021/04/01 00:31:20;;;;;;;23.13;12.15;;;7.80;63.90;;;;;;5052979;28;20056;-83
2021/04/01 00:33:46;;;;;;;18.63;10.30;;;7.80;64.60;;;;;;5054654;28;20075;-83
2021/04/01 00:36:12;;;;;;;18.30;11.13;;;7.80;63.90;;;;;;5053452;28;20020;-83
2021/04/01 00:38:37;;;;;;;22.88;11.68;;;7.80;63.90;;;;;;5053589;28;20475;-83
2021/04/01 00:41:03;;;;;;;18.90;11.73;;;7.80;63.90;;;;;;5053123;28;20368;-83
2021/04/01 00:43:29;;;;;;;22.88;12.07;;;7.80;64.20;;;;;;5053253;28;20033;-83
2021/04/01 00:45:55;;;;;;;17.83;11.50;;;7.70;64.40;;;;;;5053616;28;20053;-83
2021/04/01 00:48:21;;;;;;;19.08;10.68;;;7.80;64.10;;;;;;5053178;28;20082;-83
2021/04/01 00:50:47;;;;;;;22.40;11.65;;;7.80;64.40;;;;;;5053297;28;20422;-83
2021/04/01 00:53:12;;;;;;;21.13;11.48;;;7.70;64.30;;;;;;5054192;28;20021;-84
2021/04/01 00:55:38;;;;;;;19.65;10.57;;;7.70;64.60;;;;;;5053106;28;20074;-83
2021/04/01 00:58:04;;;;;;;18.77;10.68;;;7.70;64.40;;;;;;5053177;28;20017;-82
2021/04/01 01:00:32;;;;;;;21.13;10.30;;;7.70;64.20;;;;;;5052996;28;20017;-82
2021/04/01 01:02:58;;;;;;;17.00;10.48;;;7.70;64.10;;;;;;5052770;28;20047;-83
2021/04/01 01:05:26;;;;;;;21.30;10.55;;;7.70;64.10;;;;;;5053910;28;20474;-82
2021/04/01 01:07:51;;;;;;;20.88;10.80;;;7.70;64.00;;;;;;5052538;28;20479;-82
2021/04/01 01:10:24;;;;;;;15.52;9.88;;;7.70;64.10;;;;;;5052689;28;20083;-83
2021/04/01 01:12:51;;;;;;;17.63;10.93;;;7.60;64.40;;;;;;5053916;28;20035;-83
2021/04/01 01:15:17;;;;;;;18.75;10.65;;;7.60;64.70;;;;;;5053755;28;20021;-83
2021/04/01 01:17:42;;;;;;;19.23;10.20;;;7.50;64.70;;;;;;5052586;28;20023;-84
2021/04/01 01:20:10;;;;;;;17.70;10.02;;;7.40;65.30;;;;;;5052776;28;20025;-83
2021/04/01 01:22:41;;;;;;;17.75;10.30;;;7.40;65.50;;;;;;5054461;28;20021;-83
2021/04/01 01:25:11;;;;;;;20.35;11.05;;;7.40;65.80;;;;;;5051601;28;20028;-84
2021/04/01 01:27:38;;;;;;;18.02;10.30;;;7.30;66.40;;;;;;5054144;28;20051;-84
2021/04/01 01:30:10;;;;;;;22.33;12.60;;;7.30;66.50;;;;;;5053891;28;20049;-83
2021/04/01 01:32:38;;;;;;;21.45;12.50;;;7.20;67.30;;;;;;5052620;28;20032;-83
2021/04/01 01:35:13;;;;;;;20.75;12.07;;;7.20;67.40;;;;;;5054149;28;20013;-84
2021/04/01 01:37:52;;;;;;;24.92;12.70;;;7.10;68.60;;;;;;5052677;28;20029;-83
2021/04/01 01:40:22;;;;;;;19.17;11.63;;;7.10;68.10;;;;;;5053791;28;20467;-83
2021/04/01 01:42:53;;;;;;;24.60;12.05;;;7.10;67.90;;;;;;5052606;28;20045;-83
2021/04/01 01:45:19;;;;;;;23.15;12.10;;;7.10;68.50;;;;;;5052535;28;20021;-83
2021/04/01 01:47:46;;;;;;;22.67;12.20;;;7.00;68.60;;;;;;5052412;28;20094;-83
2021/04/01 01:50:13;;;;;;;24.13;12.27;;;7.00;68.10;;;;;;5052401;28;20036;-83
2021/04/01 01:52:40;;;;;;;20.90;11.65;;;7.10;68.10;;;;;;5052225;28;20079;-83
2021/04/01 01:55:08;;;;;;;23.02;12.45;;;7.10;68.10;;;;;;5052370;28;20021;-84
2021/04/01 01:57:35;;;;;;;27.13;12.40;;;7.00;68.30;;;;;;5053516;28;20025;-83
2021/04/01 02:00:03;;;;;;;19.80;11.43;;;7.10;68.20;;;;;;5052237;28;20025;-84
2021/04/01 02:02:29;;;;;;;21.48;13.43;;;7.10;68.20;;;;;;5052163;28;20134;-82
2021/04/01 02:04:54;;;;;;;17.75;11.75;;;7.00;68.50;;;;;;5053820;28;20406;-83
2021/04/01 02:07:20;;;;;;;22.52;12.63;;;7.00;68.30;;;;;;5052222;28;20079;-83
2021/04/01 02:09:47;;;;;;;19.13;10.70;;;7.00;69.00;;;;;;5052428;28;20104;-83
2021/04/01 02:12:16;;;;;;;20.27;11.55;;;7.00;68.60;;;;;;5053361;28;20053;-83
2021/04/01 02:14:43;;;;;;;22.48;12.25;;;6.90;68.50;;;;;;5053509;28;20087;-83
2021/04/01 02:17:13;;;;;;;20.25;11.25;;;6.90;69.00;;;;;;5052296;28;20431;-83
2021/04/01 02:19:39;;;;;;;19.45;12.30;;;6.90;68.80;;;;;;5051848;28;20083;-83
2021/04/01 02:22:05;;;;;;;19.35;11.43;;;6.90;68.80;;;;;;5051927;28;20033;-83
2021/04/01 02:24:31;;;;;;;21.48;12.23;;;6.90;68.80;;;;;;5051720;28;20394;-83
2021/04/01 02:26:57;;;;;;;17.23;10.70;;;6.70;69.90;;;;;;5051710;28;20021;-82
2021/04/01 02:29:23;;;;;;;23.23;12.30;;;6.60;69.80;;;;;;5051684;28;20032;-83
2021/04/01 02:31:49;;;;;;;19.92;11.60;;;6.70;69.90;;;;;;5051625;28;20384;-82
2021/04/01 02:34:16;;;;;;;18.95;11.32;;;6.60;70.00;;;;;;5070320;28;20026;-82
2021/04/01 02:36:42;;;;;;;19.50;11.23;;;6.60;70.20;;;;;;5032874;28;20117;-83
2021/04/01 02:39:08;;;;;;;21.55;12.50;;;6.60;70.10;;;;;;5035901;28;20379;-82
2021/04/01 02:41:34;;;;;;;22.58;11.43;;;6.50;70.80;;;;;;5035455;28;20026;-82
2021/04/01 02:44:00;;;;;;;20.20;10.40;;;6.50;71.10;;;;;;5036814;28;20083;-82
2021/04/01 02:46:25;;;;;;;19.13;11.60;;;6.40;71.10;;;;;;5038607;28;20025;-82
2021/04/01 02:48:51;;;;;;;22.85;12.10;;;6.40;71.80;;;;;;5055892;28;20356;-82
2021/04/01 02:51:17;;;;;;;19.13;11.82;;;6.40;71.70;;;;;;5054769;28;20041;-81
2021/04/01 02:53:42;;;;;;;20.65;11.20;;;6.30;72.10;;;;;;5054884;28;20017;-82
2021/04/01 02:56:08;;;;;;;21.40;13.25;;;6.20;72.50;;;;;;5055165;28;20703;-82
2021/04/01 02:58:34;;;;;;;21.70;11.32;;;6.10;73.20;;;;;;5054205;28;20107;-82
2021/04/01 03:01:01;;;;;;;21.38;11.00;;;6.10;72.80;;;;;;5054540;28;20017;-82
2021/04/01 03:03:30;;;;;;;20.35;12.75;;;6.10;73.60;;;;;;5054182;28;20086;-82
2021/04/01 03:05:57;;;;;;;18.63;10.63;;;6.00;73.60;;;;;;5053998;28;20037;-82
2021/04/01 03:08:23;;;;;;;21.38;11.68;;;6.00;73.50;;;;;;5054728;28;20094;-83
2021/04/01 03:10:49;;;;;;;19.83;11.38;;;5.90;73.90;;;;;;5054599;28;20126;-82
2021/04/01 03:13:15;;;;;;;18.98;10.90;;;5.90;75.10;;;;;;5054374;28;20053;-82
2021/04/01 03:15:40;;;;;;;20.05;11.90;;;5.90;74.30;;;;;;5054437;28;20103;-82
2021/04/01 03:18:06;;;;;;;23.55;12.25;;;5.80;75.20;;;;;;5054369;28;20116;-82
2021/04/01 03:20:32;;;;;;;21.00;11.05;;;5.80;75.00;;;;;;5054938;28;20040;-82
2021/04/01 03:22:58;;;;;;;20.73;12.02;;;5.80;74.80;;;;;;5055426;28;20029;-82
2021/04/01 03:25:23;;;;;;;22.90;12.57;;;5.80;74.60;;;;;;5056185;28;20028;-82
2021/04/01 03:27:49;;;;;;;22.55;12.95;;;5.80;74.70;;;;;;5054657;28;20055;-82
2021/04/01 03:30:16;;;;;;;18.90;11.65;;;5.70;75.30;;;;;;5054695;28;20142;-82
2021/04/01 03:32:47;;;;;;;21.00;12.23;;;5.70;75.20;;;;;;5054615;28;20475;-83
2021/04/01 03:35:20;;;;;;;16.70;11.57;;;5.70;75.50;;;;;;5054369;28;20115;-82
2021/04/01 03:37:48;;;;;;;20.15;11.40;;;5.60;75.60;;;;;;5035938;28;20060;-83
2021/04/01 03:40:14;;;;;;;19.58;13.00;;;5.70;75.20;;;;;;5034708;28;20537;-82
2021/04/01 03:42:40;;;;;;;20.88;13.05;;;5.70;75.50;;;;;;5034575;28;20033;-82
2021/04/01 03:45:07;;;;;;;23.40;12.55;;;5.60;75.90;;;;;;5035948;28;20025;-83
2021/04/01 03:47:33;;;;;;;18.48;12.40;;;5.70;75.90;;;;;;5050895;28;20092;-83
2021/04/01 03:49:59;;;;;;;21.98;12.77;;;5.60;76.10;;;;;;5053863;28;20037;-83
2021/04/01 03:52:24;;;;;;;25.83;13.65;;;5.60;75.80;;;;;;5054261;28;20025;-83
2021/04/01 03:54:55;;;;;;;21.27;11.60;;;5.60;76.30;;;;;;5054347;28;20021;-83
2021/04/01 03:57:21;;;;;;;18.70;11.63;;;5.60;76.30;;;;;;5054238;28;20056;-84
2021/04/01 04:00:07;;;;;;;17.60;11.82;;;5.50;76.50;;;;;;5054897;28;20072;-82
2021/04/01 04:10:39;;;;;;;59.30;30.55;;;5.60;76.80;;;;;;5055125;28;20036;-83
2021/04/01 04:15:30;;;;;;;22.80;14.20;;;5.60;76.90;;;;;;5055833;28;20022;-83
2021/04/01 04:17:56;;;;;;;32.63;19.27;;;5.60;76.70;;;;;;5055370;28;20052;-83
2021/04/01 04:20:22;;;;;;;23.08;13.13;;;5.70;76.60;;;;;;5053668;28;20036;-83
2021/04/01 04:22:50;;;;;;;34.35;20.70;;;5.70;76.90;;;;;;5053559;28;20067;-83
2021/04/01 04:25:17;;;;;;;25.38;15.10;;;5.70;76.80;;;;;;5033725;28;20036;-82
2021/04/01 04:30:25;;;;;;;32.15;17.23;;;5.80;77.30;;;;;;5054666;28;20056;-83
2021/04/01 04:32:51;;;;;;;35.78;21.65;;;5.80;76.90;;;;;;5053342;28;20036;-85
2021/04/01 04:35:16;;;;;;;30.73;18.00;;;5.90;76.90;;;;;;5053091;28;20021;-79
2021/04/01 04:37:42;;;;;;;27.48;16.77;;;6.00;76.90;;;;;;5052887;28;20017;-75
2021/04/01 04:40:09;;;;;;;58.17;29.05;;;6.00;77.50;;;;;;5052695;28;20021;-75
2021/04/01 04:42:36;;;;;;;55.00;28.58;;;6.10;76.90;;;;;;5053123;28;20031;-78
2021/04/01 04:45:02;;;;;;;74.20;45.45;;;6.20;76.70;;;;;;5052448;28;20025;-78
2021/04/01 04:47:28;;;;;;;35.40;17.88;;;6.30;76.50;;;;;;5051666;28;20135;-78
2021/04/01 04:49:54;;;;;;;24.27;14.90;;;6.30;76.80;;;;;;5053337;28;20103;-82
2021/04/01 04:52:21;;;;;;;27.48;15.10;;;6.40;76.80;;;;;;5052161;28;20040;-81
2021/04/01 04:54:47;;;;;;;23.05;13.82;;;6.40;76.70;;;;;;5051625;28;20562;-81
2021/04/01 04:59:59;;;;;;;25.92;14.48;;;6.60;76.40;;;;;;5054290;28;20463;-84
2021/04/01 05:05:10;;;;;;;31.75;17.02;;;6.80;76.10;;;;;;5053961;28;20036;-85
2021/04/01 05:07:35;;;;;;;33.20;17.58;;;6.90;76.00;;;;;;5052475;28;20032;-85
2021/04/01 05:10:01;;;;;;;33.05;19.10;;;6.90;76.40;;;;;;5052030;28;20383;-85
2021/04/01 05:12:27;;;;;;;34.22;19.15;;;7.00;76.80;;;;;;5051231;28;20386;-85
2021/04/01 05:14:53;;;;;;;30.30;17.42;;;7.10;76.30;;;;;;5050897;28;20028;-85
2021/04/01 05:17:19;;;;;;;27.42;17.92;;;7.20;76.30;;;;;;5052430;28;20029;-85
2021/04/01 05:19:47;;;;;;;28.05;16.33;;;7.30;76.00;;;;;;5052291;28;20023;-86
2021/04/01 05:22:24;;;;;;;24.88;15.18;;;7.40;76.00;;;;;;5052340;28;20028;-86
2021/04/01 05:24:52;;;;;;;26.55;15.80;;;7.40;76.00;;;;;;5052781;28;20037;-85
2021/04/01 05:29:59;;;;;;;24.75;16.08;;;7.60;75.80;;;;;;5054025;28;20103;-86
2021/04/01 05:32:27;;;;;;;26.60;15.93;;;7.80;75.70;;;;;;5054175;28;20021;-87
2021/04/01 05:34:53;;;;;;;30.88;19.38;;;7.90;75.40;;;;;;5052315;28;20017;-87
2021/04/01 05:37:21;;;;;;;30.98;17.02;;;8.00;75.60;;;;;;5053432;28;20025;-86
2021/04/01 05:39:47;;;;;;;27.13;16.40;;;8.10;75.20;;;;;;5052869;28;20021;-88
2021/04/01 05:42:15;;;;;;;28.88;16.77;;;8.20;74.90;;;;;;5053689;28;20051;-87
2021/04/01 05:44:44;;;;;;;32.63;17.73;;;8.30;75.00;;;;;;5053625;28;20021;-86
2021/04/01 05:47:20;;;;;;;29.27;17.05;;;8.30;75.20;;;;;;5052806;28;20032;-87
2021/04/01 05:50:00;;;;;;;29.60;17.55;;;8.40;75.30;;;;;;5052403;28;20025;-87
2021/04/01 06:03:17;;;;;;;32.20;20.30;;;9.00;74.50;;;;;;5054701;28;20037;-87
2021/04/01 06:05:48;;;;;;;31.23;18.90;;;9.20;74.00;;;;;;5066712;28;20025;-87
2021/04/01 06:08:17;;;;;;;34.20;20.33;;;9.30;73.70;;;;;;5052654;28;20049;-86
2021/04/01 06:10:44;;;;;;;31.70;20.30;;;9.30;73.90;;;;;;5052180;28;20033;-85
2021/04/01 06:13:13;;;;;;;33.88;20.10;;;9.40;73.70;;;;;;5055709;28;20029;-86
2021/04/01 06:15:43;;;;;;;36.22;18.73;;;9.60;73.80;;;;;;5057958;28;20466;-86
2021/04/01 06:18:11;;;;;;;48.30;23.17;;;9.60;73.30;;;;;;5057496;28;20029;-87
2021/04/01 06:20:39;;;;;;;39.42;23.00;;;9.80;73.90;;;;;;5054800;28;20028;-86
2021/04/01 06:23:05;;;;;;;31.40;19.88;;;9.90;73.20;;;;;;5054540;28;20119;-86
2021/04/01 06:25:37;;;;;;;33.78;19.77;;;10.00;73.00;;;;;;5037565;28;20175;-86
2021/04/01 06:28:07;;;;;;;39.28;21.33;;;10.20;72.80;;;;;;5054165;28;20033;-86
2021/04/01 06:31:03;;;;;;;31.67;19.58;;;10.30;72.60;;;;;;5054035;28;20068;-86
2021/04/01 06:33:28;;;;;;;34.03;20.35;;;10.50;72.10;;;;;;5045061;28;20048;-85
2021/04/01 06:36:03;;;;;;;32.63;18.95;;;10.60;71.70;;;;;;5055333;28;20386;-85
2021/04/01 06:38:36;;;;;;;30.38;17.80;;;10.70;71.30;;;;;;5055229;28;20609;-87
2021/04/01 06:41:06;;;;;;;30.98;18.38;;;10.80;71.20;;;;;;5055386;28;20467;-86
2021/04/01 06:43:35;;;;;;;35.47;21.15;;;10.90;70.90;;;;;;5054351;28;20025;-89
2021/04/01 06:46:07;;;;;;;27.52;18.33;;;11.00;70.60;;;;;;5054374;28;20112;-86
2021/04/01 06:49:05;;;;;;;36.78;22.60;;;11.10;70.10;;;;;;5055279;28;20051;-86
2021/04/01 06:51:37;;;;;;;35.20;21.33;;;11.20;70.20;;;;;;5054737;28;20020;-86
2021/04/01 06:56:52;;;;;;;24.30;15.88;;;11.50;69.70;;;;;;5055071;28;20029;-85
2021/04/01 07:00:00;;;;;;;34.15;20.55;;;11.50;69.20;;;;;;5053482;28;20021;-85
2021/04/01 07:02:33;;;;;;;33.05;20.42;;;11.70;69.00;;;;;;5053993;28;20039;-86
2021/04/01 07:05:47;;;;;;;25.80;18.52;;;11.80;69.20;;;;;;5053412;28;20470;-85
2021/04/01 07:08:07;;;;;;;27.90;18.38;;;11.90;69.20;;;;;;5054106;28;20437;-86
2021/04/01 07:11:12;;;;;;;27.77;16.60;;;12.00;68.70;;;;;;5053448;28;20025;-85
2021/04/01 07:13:47;;;;;;;30.05;17.23;;;12.20;68.10;;;;;;5052821;28;20616;-86
2021/04/01 07:19:01;;;;;;;28.50;17.40;;;12.40;68.10;;;;;;5054964;28;20036;-86
2021/04/01 07:48:47;;;;;;;23.77;16.30;;;13.70;65.30;;;;;;5055565;28;20044;-84
2021/04/01 07:54:00;;;;;;;22.75;15.10;;;13.90;64.00;;;;;;5055778;28;20029;-85
2021/04/01 07:56:33;;;;;;;21.02;14.98;;;14.10;63.50;;;;;;5054485;28;20078;-84
2021/04/01 08:01:51;;;;;;;22.73;15.35;;;14.30;62.90;;;;;;5055665;28;20534;-84
2021/04/01 08:04:17;;;;;;;20.65;13.55;;;14.50;62.30;;;;;;5054006;28;20437;-84
2021/04/01 08:06:44;;;;;;;23.52;14.27;;;14.60;62.20;;;;;;5054147;28;20502;-83
2021/04/01 08:09:17;;;;;;;21.55;13.43;;;14.60;61.40;;;;;;5054011;28;20025;-84
2021/04/01 08:14:21;;;;;;;23.55;13.98;;;14.80;60.70;;;;;;5054827;28;20024;-85
2021/04/01 08:19:22;;;;;;;23.27;14.00;;;15.00;60.00;;;;;;5054285;28;20104;-84
2021/04/01 08:21:50;;;;;;;19.52;13.35;;;15.20;60.60;;;;;;5051705;28;20067;-84
2021/04/01 08:24:43;;;;;;;22.50;14.23;;;15.20;60.40;;;;;;5052197;28;20143;-86
2021/04/01 08:27:24;;;;;;;23.40;12.98;;;15.30;59.40;;;;;;5052673;28;20155;-85
2021/04/01 08:33:16;;;;;;;21.63;13.75;;;15.50;59.60;;;;;;5053449;28;20051;-84
2021/04/01 08:35:42;;;;;;;25.00;14.43;;;15.60;58.90;;;;;;5051079;28;20021;-82
2021/04/01 08:40:41;;;;;;;20.02;12.48;;;15.80;58.80;;;;;;5053089;28;20463;-85
2021/04/01 08:46:31;;;;;;;19.48;12.38;;;16.10;58.10;;;;;;5052900;28;20021;-85
2021/04/01 08:49:22;;;;;;;19.95;12.27;;;16.10;57.80;;;;;;5051718;28;20029;-84
2021/04/01 08:51:57;;;;;;;16.45;10.70;;;16.10;58.40;;;;;;5051379;28;20025;-83
2021/04/01 08:54:29;;;;;;;16.60;11.02;;;16.10;58.30;;;;;;5051721;28;20450;-85
2021/04/01 08:57:12;;;;;;;25.38;12.68;;;16.10;57.50;;;;;;5051165;28;20194;-84
2021/04/01 09:00:08;;;;;;;18.30;12.60;;;16.10;57.70;;;;;;5051682;28;20021;-84
2021/04/01 09:02:35;;;;;;;20.65;11.52;;;16.20;56.90;;;;;;5052228;28;20025;-84
2021/04/01 09:05:07;;;;;;;24.58;13.07;;;16.30;57.60;;;;;;5051029;28;20116;-84
2021/04/01 09:07:57;;;;;;;24.77;12.95;;;16.40;57.70;;;;;;5051295;28;20025;-84
2021/04/01 09:10:24;;;;;;;19.00;11.75;;;16.50;57.30;;;;;;5050814;28;20032;-87
2021/04/01 09:13:08;;;;;;;15.98;11.77;;;16.50;57.40;;;;;;5050862;28;20037;-86
2021/04/01 09:18:44;;;;;;;21.60;12.45;;;16.50;56.90;;;;;;5052288;28;20082;-84
2021/04/01 09:21:10;;;;;;;20.73;12.90;;;16.40;57.80;;;;;;5043145;28;20033;-84
2021/04/01 09:23:39;;;;;;;24.55;14.75;;;16.40;58.20;;;;;;5052622;28;20029;-84
2021/04/01 09:26:06;;;;;;;17.88;11.77;;;16.50;58.70;;;;;;5034886;28;20087;-85
2021/04/01 09:28:35;;;;;;;20.67;12.48;;;16.50;57.80;;;;;;5050811;28;20083;-84
2021/04/01 09:31:04;;;;;;;19.63;12.43;;;16.60;58.10;;;;;;5050798;28;20052;-85
2021/04/01 09:33:32;;;;;;;16.75;8.45;;;16.70;56.50;;;;;;5050209;28;20060;-84
2021/04/01 09:36:18;;;;;;;16.77;8.95;;;16.70;58.00;;;;;;5050220;28;20024;-87
2021/04/01 09:38:51;;;;;;;34.53;17.40;;;16.70;58.30;;;;;;5050931;28;20475;-87
2021/04/01 09:41:29;;;;;;;14.88;10.45;;;16.70;57.50;;;;;;5050909;28;20025;-85
2021/04/01 09:44:03;;;;;;;21.42;9.52;;;16.70;57.50;;;;;;5051380;28;20028;-87
2021/04/01 09:46:29;;;;;;;13.35;8.55;;;16.60;58.40;;;;;;5049878;28;20031;-86
2021/04/01 09:49:09;;;;;;;15.43;9.02;;;16.70;58.10;;;;;;5052182;28;20052;-87
2021/04/01 09:51:35;;;;;;;13.70;9.48;;;16.90;57.40;;;;;;5051972;28;20056;-87
2021/04/01 09:54:03;;;;;;;12.07;8.25;;;16.90;56.80;;;;;;5051026;28;20029;-87
2021/04/01 09:56:33;;;;;;;21.48;9.48;;;16.90;56.80;;;;;;5051917;28;20087;-85
2021/04/01 09:58:59;;;;;;;15.13;9.50;;;16.90;56.90;;;;;;5050707;28;20466;-89
2021/04/01 10:01:36;;;;;;;14.00;8.75;;;17.00;56.50;;;;;;5051161;28;20029;-87
2021/04/01 10:04:18;;;;;;;10.13;8.20;;;17.00;56.40;;;;;;5050338;28;20116;-86
2021/04/01 10:07:13;;;;;;;11.65;8.07;;;17.00;56.70;;;;;;5050575;28;20024;-87
2021/04/01 10:09:49;;;;;;;15.98;9.10;;;17.00;56.90;;;;;;5050983;28;20439;-84
2021/04/01 10:12:18;;;;;;;17.77;8.95;;;17.10;57.40;;;;;;5051125;28;20063;-84
2021/04/01 10:14:52;;;;;;;13.43;8.50;;;17.00;57.50;;;;;;5050673;28;20025;-85
2021/04/01 10:17:20;;;;;;;20.13;9.55;;;17.10;57.50;;;;;;5049847;28;20475;-84
2021/04/01 10:19:59;;;;;;;13.45;8.70;;;17.10;57.30;;;;;;5050868;28;20021;-86
2021/04/01 10:22:32;;;;;;;9.32;6.93;;;17.20;56.60;;;;;;5052358;28;20466;-85
2021/04/01 10:25:19;;;;;;;16.20;8.52;;;17.30;56.70;;;;;;5052200;28;20056;-84
2021/04/01 10:30:21;;;;;;;11.88;6.90;;;17.40;57.10;;;;;;5053115;28;20491;-87
2021/04/01 10:33:02;;;;;;;11.27;7.15;;;17.40;56.80;;;;;;5053213;28;20021;-87
2021/04/01 10:35:31;;;;;;;13.23;7.93;;;17.50;56.40;;;;;;5051922;28;20025;-85
2021/04/01 10:37:57;;;;;;;17.33;6.88;;;17.60;55.50;;;;;;5052060;28;20467;-85
2021/04/01 10:40:24;;;;;;;13.50;7.70;;;17.50;55.80;;;;;;5052373;28;20497;-85
2021/04/01 10:43:07;;;;;;;13.23;7.45;;;17.60;55.80;;;;;;5051726;28;20395;-85
2021/04/01 10:45:39;;;;;;;14.93;8.55;;;17.60;55.90;;;;;;5052135;28;20494;-83
2021/04/01 10:48:10;;;;;;;11.93;7.68;;;17.70;56.10;;;;;;5052213;28;20048;-84
2021/04/01 10:50:36;;;;;;;10.50;8.00;;;17.70;55.90;;;;;;5053300;28;20490;-85
2021/04/01 10:53:02;;;;;;;12.25;7.63;;;17.80;55.20;;;;;;5051471;28;20047;-86
2021/04/01 10:55:30;;;;;;;10.10;8.15;;;17.90;55.50;;;;;;5051745;28;20120;-85
2021/04/01 10:58:07;;;;;;;11.60;7.88;;;18.00;55.00;;;;;;5052870;28;20029;-84
2021/04/01 11:00:33;;;;;;;10.45;7.70;;;18.00;55.10;;;;;;5055679;28;20024;-84
2021/04/01 11:03:02;;;;;;;9.73;6.93;;;17.90;55.20;;;;;;5055028;28;20040;-85
2021/04/01 11:05:31;;;;;;;12.02;7.28;;;18.00;54.50;;;;;;5055349;28;20029;-85
2021/04/01 11:08:16;;;;;;;10.13;7.28;;;17.90;54.70;;;;;;5055452;28;20486;-85
2021/04/01 11:10:42;;;;;;;9.60;6.57;;;18.00;55.20;;;;;;5054985;28;20021;-86
2021/04/01 11:13:09;;;;;;;12.10;7.47;;;18.10;55.10;;;;;;5055232;28;20032;-84
2021/04/01 11:15:37;;;;;;;11.60;7.57;;;18.10;54.80;;;;;;5055386;28;20021;-85
2021/04/01 11:18:14;;;;;;;11.13;7.50;;;18.20;55.10;;;;;;5055571;28;20025;-86
2021/04/01 11:20:42;;;;;;;9.38;7.13;;;18.30;53.90;;;;;;5055380;28;20020;-85
2021/04/01 11:23:22;;;;;;;11.80;7.18;;;18.40;54.10;;;;;;5053434;28;20112;-86
2021/04/01 11:25:50;;;;;;;;;;;18.50;53.80;;;;;;5054989;28;20036;-86
2021/04/01 11:28:16;;;;;;;10.75;7.57;;;18.50;54.10;;;;;;5053331;28;19967;-86
2021/04/01 11:30:51;;;;;;;9.35;7.38;;;18.50;54.10;;;;;;5053601;28;20055;-85
2021/04/01 11:33:23;;;;;;;10.23;7.15;;;18.60;53.50;;;;;;5053193;28;20028;-86
2021/04/01 11:38:59;;;;;;;8.75;7.15;;;18.70;52.50;;;;;;5054330;28;20021;-87
2021/04/01 11:41:27;;;;;;;10.23;7.00;;;18.70;53.20;;;;;;5053050;28;20024;-85
2021/04/01 11:43:55;;;;;;;10.07;7.20;;;18.70;52.80;;;;;;5052802;28;20033;-86
2021/04/01 11:46:23;;;;;;;15.88;8.43;;;18.70;52.90;;;;;;5052545;28;20092;-84
2021/04/01 11:48:50;;;;;;;11.63;8.30;;;18.70;52.50;;;;;;5052620;28;20056;-86
2021/04/01 11:51:27;;;;;;;9.95;7.30;;;18.80;53.00;;;;;;5054059;28;20025;-85
2021/04/01 11:53:53;;;;;;;10.68;7.55;;;18.80;52.10;;;;;;5052506;28;20467;-85
2021/04/01 11:56:20;;;;;;;12.27;7.93;;;18.80;52.50;;;;;;5053458;28;20029;-85
2021/04/01 11:58:46;;;;;;;12.98;7.65;;;18.70;53.00;;;;;;5052910;28;20424;-85
2021/04/01 12:01:31;;;;;;;11.02;7.18;;;18.80;52.60;;;;;;5053725;28;20079;-85
2021/04/01 12:06:25;;;;;;;9.80;7.13;;;19.10;52.30;;;;;;5053778;28;20017;-87
2021/04/01 12:08:51;;;;;;;14.40;7.45;;;19.20;51.90;;;;;;5053294;28;20017;-87
2021/04/01 12:11:17;;;;;;;9.73;6.47;;;19.20;52.10;;;;;;5052005;28;20032;-86
2021/04/01 12:13:42;;;;;;;11.35;7.25;;;19.30;51.90;;;;;;5053378;28;20029;-84
2021/04/01 12:16:16;;;;;;;14.05;8.50;;;19.40;51.00;;;;;;5052128;28;20170;-83
2021/04/01 12:18:44;;;;;;;12.82;8.30;;;19.30;51.20;;;;;;5052118;28;20383;-82
2021/04/01 12:21:10;;;;;;;68.97;11.65;;;19.30;51.30;;;;;;5051961;28;20025;-81
2021/04/01 12:23:47;;;;;;;11.93;8.90;;;19.50;52.10;;;;;;5052267;28;20540;-82
2021/04/01 12:26:13;;;;;;;11.93;7.75;;;19.90;51.40;;;;;;5053275;28;20429;-82
2021/04/01 12:28:39;;;;;;;12.80;8.35;;;20.20;50.30;;;;;;5052425;28;20035;-83
2021/04/01 12:31:12;;;;;;;13.55;8.00;;;20.10;49.20;;;;;;5052567;28;20052;-78
2021/04/01 12:33:51;;;;;;;9.30;7.15;;;20.50;50.30;;;;;;5053529;28;20095;-82
2021/04/01 12:36:29;;;;;;;13.77;8.52;;;20.90;49.30;;;;;;5051757;28;20027;-87
2021/04/01 12:38:55;;;;;;;13.88;8.25;;;21.20;47.30;;;;;;5049283;28;20118;-85
2021/04/01 12:41:25;;;;;;;13.05;7.53;;;21.30;46.90;;;;;;5054002;28;20086;-87
2021/04/01 12:43:55;;;;;;;10.65;7.65;;;21.20;47.40;;;;;;5053839;28;20021;-88
2021/04/01 12:46:22;;;;;;;9.40;6.90;;;21.40;46.20;;;;;;5056795;28;20031;-89
2021/04/01 12:48:56;;;;;;;10.68;6.82;;;21.40;47.20;;;;;;5065573;28;20021;-88
2021/04/01 12:51:25;;;;;;;12.23;7.43;;;21.50;46.80;;;;;;5053894;28;20032;-89
2021/04/01 12:54:04;;;;;;;9.02;6.90;;;21.70;46.90;;;;;;5053451;28;20053;-90
2021/04/01 12:57:06;;;;;;;8.73;6.45;;;22.00;46.00;;;;;;5053337;28;20116;-89
2021/04/01 12:59:51;;;;;;;12.13;7.47;;;22.10;45.80;;;;;;5049290;28;20078;-89
2021/04/01 13:02:19;;;;;;;12.68;7.63;;;21.90;46.60;;;;;;5053021;28;20021;-89
2021/04/01 13:04:53;;;;;;;10.60;7.60;;;21.90;46.80;;;;;;5052452;28;20426;-89
2021/04/01 13:09:58;;;;;;;18.02;7.15;;;22.30;45.80;;;;;;5054712;28;20032;-89
2021/04/01 13:12:24;;;;;;;8.50;6.82;;;22.40;45.20;;;;;;5053123;28;20090;-88
2021/04/01 13:14:50;;;;;;;11.30;7.22;;;22.30;45.20;;;;;;5053946;28;20383;-89
2021/04/01 13:17:17;;;;;;;12.40;8.05;;;22.50;45.20;;;;;;5053578;28;20117;-89
2021/04/01 13:19:43;;;;;;;12.77;7.68;;;22.30;45.70;;;;;;5052603;28;20017;-91
2021/04/01 13:22:22;;;;;;;11.02;6.53;;;22.40;45.50;;;;;;5052151;28;20020;-88
2021/04/01 13:27:17;;;;;;;15.65;7.43;;;22.30;46.00;;;;;;5050850;28;20032;-89
2021/04/01 13:29:50;;;;;;;9.55;7.30;;;22.40;45.20;;;;;;5053298;28;20025;-89
2021/04/01 13:32:23;;;;;;;11.55;7.03;;;22.60;44.40;;;;;;5052149;28;20429;-89
2021/04/01 13:35:02;;;;;;;15.75;7.60;;;22.60;44.50;;;;;;5052032;28;20528;-88
2021/04/01 13:37:33;;;;;;;9.25;6.25;;;22.60;44.20;;;;;;5052322;28;20028;-89
2021/04/01 13:40:03;;;;;;;9.38;6.75;;;22.30;44.60;;;;;;5049629;28;20440;-89
2021/04/01 13:42:33;;;;;;;11.43;6.38;;;22.30;45.10;;;;;;5051727;28;20033;-89
2021/04/01 13:45:14;;;;;;;;;;;22.40;44.10;;;;;;5052197;28;20029;-82
2021/04/01 13:47:45;;;;;;;10.07;7.30;;;22.20;44.30;;;;;;5049869;28;19956;-82
2021/04/01 13:50:14;;;;;;;14.05;7.57;;;21.90;45.00;;;;;;5051123;28;20039;-82
2021/04/01 13:53:01;;;;;;;13.70;6.65;;;21.70;45.00;;;;;;5050114;28;20039;-82
2021/04/01 13:55:30;;;;;;;8.35;6.18;;;21.50;45.10;;;;;;5051063;28;20494;-82
2021/04/01 14:03:54;;;;;;;10.95;6.97;;;20.30;47.60;;;;;;5050963;28;20467;-82
2021/04/01 14:09:18;;;;;;;18.45;9.18;;;19.90;48.50;;;;;;5049773;28;20120;-83
2021/04/01 14:11:44;;;;;;;17.05;11.30;;;19.80;49.00;;;;;;5050500;28;20059;-83
2021/04/01 14:14:10;;;;;;;17.25;9.32;;;19.60;49.50;;;;;;5051732;28;20045;-83
2021/04/01 14:16:38;;;;;;;13.38;8.38;;;19.40;49.90;;;;;;5051978;28;20028;-82
2021/04/01 14:19:05;;;;;;;23.70;11.05;;;19.50;49.60;;;;;;5052254;28;20025;-83
2021/04/01 14:21:32;;;;;;;11.80;7.60;;;19.30;50.10;;;;;;5052146;28;20040;-83
2021/04/01 14:23:59;;;;;;;12.95;8.40;;;19.40;49.50;;;;;;5052079;28;20082;-81
2021/04/01 14:28:51;;;;;;;10.32;7.78;;;19.40;49.50;;;;;;5052877;28;20032;-79
2021/04/01 14:31:16;;;;;;;15.93;7.93;;;19.50;49.40;;;;;;5052629;28;20072;-79
2021/04/01 14:33:44;;;;;;;11.95;8.23;;;19.40;49.90;;;;;;5054800;28;20025;-84
2021/04/01 14:36:12;;;;;;;11.45;7.90;;;19.40;49.90;;;;;;5056011;28;20021;-81
2021/04/01 14:38:40;;;;;;;16.17;10.52;;;19.50;49.70;;;;;;5055247;28;20025;-81
2021/04/01 14:43:46;;;;;;;22.90;16.38;;;19.30;50.00;;;;;;5056790;28;20044;-82
2021/04/01 14:46:12;;;;;;;65.32;34.33;;;19.30;49.90;;;;;;5053318;28;20425;-82